Time;durP1;ratioP1;P1;durP2;ratioP2;P2;SDS_P1;SDS_P2;PMS_P1;PMS_P2;Temp;Humidity;BMP_temperature;BMP_pressure;BME280_temperature;BME280_humidity;BME280_pressure;Samples;Min_cycle;Max_cycle;Signal;HPM_P1;HPM_P2
2021/12/12 00:01:49;;;;;;;9.93;4.57;;;7.70;99.90;;;;;;5055641;28;20467;-83
2021/12/12 00:04:18;;;;;;;7.70;4.87;;;7.70;99.90;;;;;;5070376;28;20431;-82
2021/12/12 00:06:50;;;;;;;9.00;4.70;;;7.80;99.90;;;;;;5073796;28;20454;-81
2021/12/12 00:09:24;;;;;;;9.20;4.97;;;7.50;99.90;;;;;;5075098;28;20425;-81
2021/12/12 00:11:50;;;;;;;5.93;4.43;;;7.70;99.90;;;;;;5058722;28;20448;-81
2021/12/12 00:14:20;;;;;;;7.60;5.10;;;7.40;99.90;;;;;;5061683;28;20416;-83
2021/12/12 00:16:46;;;;;;;8.90;4.70;;;7.70;99.90;;;;;;5075373;28;20446;-81
2021/12/12 00:19:12;;;;;;;6.80;4.50;;;7.30;99.90;;;;;;5044421;28;20432;-81
2021/12/12 00:21:42;;;;;;;7.93;4.77;;;7.40;99.90;;;;;;5061976;28;20455;-82
2021/12/12 00:24:11;;;;;;;8.60;4.60;;;7.20;99.90;;;;;;5058081;28;20909;-82
2021/12/12 00:26:37;;;;;;;8.13;4.43;;;7.30;99.90;;;;;;5074831;28;20973;-83
2021/12/12 00:29:05;;;;;;;9.20;4.80;;;7.30;99.90;;;;;;5051855;28;20494;-82
2021/12/12 00:31:31;;;;;;;6.13;5.53;;;7.40;99.90;;;;;;5054628;28;20458;-83
2021/12/12 00:33:58;;;;;;;7.90;4.80;;;7.30;99.90;;;;;;5058172;28;20534;-81
2021/12/12 00:36:26;;;;;;;8.87;4.40;;;7.30;99.90;;;;;;5073702;28;20446;-83
2021/12/12 00:38:59;;;;;;;11.13;4.37;;;7.30;99.90;;;;;;5054836;28;20439;-83
2021/12/12 00:41:37;;;;;;;7.23;4.23;;;7.30;99.90;;;;;;5032423;28;20467;-83
2021/12/12 00:44:05;;;;;;;6.00;3.90;;;7.00;99.90;;;;;;5057682;28;20788;-83
2021/12/12 00:46:30;;;;;;;10.33;5.10;;;7.30;99.90;;;;;;5027983;28;20466;-82
2021/12/12 00:48:56;;;;;;;9.80;4.47;;;7.40;99.90;;;;;;5044904;28;20757;-81
2021/12/12 00:51:28;;;;;;;6.40;4.57;;;7.20;99.90;;;;;;5074573;28;20193;-82
2021/12/12 00:53:54;;;;;;;10.07;4.20;;;7.30;99.90;;;;;;5072898;28;20188;-83
2021/12/12 00:56:20;;;;;;;9.37;4.63;;;7.10;99.90;;;;;;5056391;28;20431;-83
2021/12/12 00:58:46;;;;;;;9.07;4.50;;;7.00;99.90;;;;;;5062502;28;20419;-82
2021/12/12 01:01:23;;;;;;;15.33;5.60;;;7.30;99.90;;;;;;5079416;28;20573;-81
2021/12/12 01:03:56;;;;;;;8.50;5.10;;;7.20;99.90;;;;;;5053925;28;20186;-82
2021/12/12 01:06:24;;;;;;;5.50;3.70;;;6.80;99.90;;;;;;5057685;28;20438;-81
2021/12/12 01:08:51;;;;;;;5.90;4.27;;;7.10;99.90;;;;;;5072452;28;20419;-84
2021/12/12 01:11:27;;;;;;;8.97;5.13;;;7.10;99.90;;;;;;5072973;28;20420;-83
2021/12/12 01:13:54;;;;;;;6.83;3.80;;;6.90;99.90;;;;;;5069601;28;20415;-82
2021/12/12 01:16:25;;;;;;;7.53;3.67;;;6.90;99.90;;;;;;5072458;28;21089;-81
2021/12/12 01:19:00;;;;;;;4.70;3.30;;;7.00;99.90;;;;;;5050786;28;20424;-84
2021/12/12 01:21:31;;;;;;;6.17;4.10;;;6.80;99.90;;;;;;5054507;28;20520;-83
2021/12/12 01:24:08;;;;;;;8.13;3.47;;;6.70;99.90;;;;;;5040126;28;20416;-83
2021/12/12 01:26:35;;;;;;;4.90;3.30;;;6.80;99.90;;;;;;5077588;28;20426;-83
2021/12/12 01:29:04;;;;;;;4.17;3.40;;;7.10;99.90;;;;;;5027775;28;20434;-84
2021/12/12 01:31:35;;;;;;;8.00;4.00;;;6.90;99.90;;;;;;5078838;28;20431;-82
2021/12/12 01:34:13;;;;;;;6.77;3.30;;;6.90;99.90;;;;;;5044503;28;20418;-83
2021/12/12 01:37:11;;;;;;;4.67;3.40;;;6.90;99.90;;;;;;5060273;28;20423;-82
2021/12/12 01:39:45;;;;;;;4.20;3.13;;;6.80;99.90;;;;;;5036190;28;20519;-81
2021/12/12 01:42:26;;;;;;;8.33;4.07;;;6.60;99.90;;;;;;5059606;28;20411;-84
2021/12/12 01:44:58;;;;;;;7.57;3.13;;;6.70;99.90;;;;;;5070510;28;20419;-84
2021/12/12 01:47:34;;;;;;;4.37;3.20;;;6.70;99.90;;;;;;5031434;28;20974;-84
2021/12/12 01:50:04;;;;;;;6.83;3.07;;;6.70;99.90;;;;;;5043674;28;20455;-83
2021/12/12 01:52:31;;;;;;;6.00;3.30;;;6.60;99.90;;;;;;5059604;28;20499;-84
2021/12/12 01:55:12;;;;;;;4.90;3.63;;;6.70;99.90;;;;;;5059547;28;20457;-84
2021/12/12 01:57:39;;;;;;;5.20;3.37;;;6.80;99.90;;;;;;5040651;28;20547;-83
2021/12/12 02:00:25;;;;;;;8.00;3.30;;;6.70;99.90;;;;;;5059247;28;20459;-83
2021/12/12 02:02:52;;;;;;;9.40;3.40;;;6.50;99.90;;;;;;5059988;28;20408;-82
2021/12/12 02:05:19;;;;;;;5.83;3.70;;;6.60;99.90;;;;;;5040108;28;21019;-81
2021/12/12 02:07:53;;;;;;;4.87;2.83;;;6.50;99.90;;;;;;5048998;28;21044;-82
2021/12/12 02:10:25;;;;;;;9.53;4.33;;;6.80;99.90;;;;;;5059541;28;20511;-83
2021/12/12 02:12:52;;;;;;;8.63;3.57;;;6.60;99.90;;;;;;5059801;28;20419;-82
2021/12/12 02:15:18;;;;;;;6.30;3.40;;;6.60;99.90;;;;;;5059409;28;20430;-83
2021/12/12 02:17:47;;;;;;;3.93;2.80;;;6.60;99.90;;;;;;5055160;28;20468;-83
2021/12/12 02:20:30;;;;;;;5.13;2.67;;;6.50;99.90;;;;;;5031606;28;20463;-84
2021/12/12 02:23:09;;;;;;;7.27;4.00;;;6.60;99.90;;;;;;5071198;28;20419;-80
2021/12/12 02:36:45;;;;;;;5.20;3.67;;;6.40;99.90;;;;;;5075101;28;20469;-80
2021/12/12 02:39:15;;;;;;;4.40;3.20;;;6.20;99.90;;;;;;5076888;28;20916;-83
2021/12/12 02:41:48;;;;;;;7.40;3.30;;;6.50;99.90;;;;;;5043486;28;20482;-82
2021/12/12 02:44:16;;;;;;;4.30;3.03;;;6.60;99.90;;;;;;5044345;28;20427;-81
2021/12/12 02:46:45;;;;;;;6.47;3.43;;;6.50;99.90;;;;;;5040735;28;20812;-80
2021/12/12 02:49:25;;;;;;;5.63;3.40;;;6.50;99.90;;;;;;5076664;28;20423;-81
2021/12/12 02:51:53;;;;;;;6.97;3.80;;;6.40;99.90;;;;;;5075781;28;20431;-82
2021/12/12 02:54:19;;;;;;;4.83;3.40;;;6.40;99.90;;;;;;5076085;28;21008;-82
2021/12/12 02:56:47;;;;;;;8.63;3.60;;;6.40;99.90;;;;;;5075805;28;21137;-82
2021/12/12 02:59:17;;;;;;;6.33;3.40;;;6.30;99.90;;;;;;5066858;28;20430;-82
2021/12/12 03:01:48;;;;;;;6.47;3.57;;;6.40;99.90;;;;;;5041216;28;20451;-81
2021/12/12 03:04:14;;;;;;;6.27;3.40;;;6.30;99.90;;;;;;5032520;28;20869;-83
2021/12/12 03:06:41;;;;;;;6.10;3.30;;;6.50;99.90;;;;;;5056646;28;20436;-81
2021/12/12 03:09:29;;;;;;;5.00;2.90;;;6.40;99.90;;;;;;5026758;28;20423;-83
2021/12/12 03:11:59;;;;;;;4.90;3.10;;;6.40;99.90;;;;;;5073029;28;20407;-82
2021/12/12 03:14:33;;;;;;;6.53;3.13;;;6.40;99.90;;;;;;5060136;28;20775;-83
2021/12/12 03:17:11;;;;;;;4.83;3.13;;;6.40;99.90;;;;;;5076425;28;20594;-83
2021/12/12 03:19:38;;;;;;;4.47;3.40;;;6.40;99.90;;;;;;5059482;28;20423;-83
2021/12/12 03:22:08;;;;;;;7.40;3.37;;;6.50;99.90;;;;;;5053344;28;20435;-83
2021/12/12 03:24:34;;;;;;;6.37;3.20;;;6.40;99.90;;;;;;5057394;28;20428;-80
2021/12/12 03:27:03;;;;;;;5.27;3.00;;;6.60;99.90;;;;;;5042092;28;20442;-81
2021/12/12 03:29:29;;;;;;;6.67;3.10;;;6.40;99.90;;;;;;5059566;28;20441;-82
2021/12/12 03:32:02;;;;;;;6.00;3.47;;;6.40;99.90;;;;;;5042146;28;20600;-82
2021/12/12 03:34:32;;;;;;;9.40;2.70;;;6.30;99.90;;;;;;5046224;28;20481;-83
2021/12/12 03:36:59;;;;;;;4.80;2.97;;;6.50;99.90;;;;;;5048219;28;20459;-84
2021/12/12 03:39:29;;;;;;;9.43;2.70;;;6.60;99.90;;;;;;5031003;28;20937;-80
2021/12/12 03:41:58;;;;;;;4.30;2.50;;;6.50;99.90;;;;;;5054230;28;20415;-80
2021/12/12 03:44:28;;;;;;;5.37;2.50;;;6.30;99.90;;;;;;5075316;28;20416;-81
2021/12/12 03:46:59;;;;;;;8.83;3.03;;;6.60;99.90;;;;;;5059318;28;20447;-80
2021/12/12 03:49:25;;;;;;;4.93;2.57;;;6.50;99.90;;;;;;5058622;28;20423;-81
2021/12/12 03:51:53;;;;;;;6.97;3.33;;;6.70;99.90;;;;;;5043648;28;20864;-81
2021/12/12 03:54:19;;;;;;;5.87;2.73;;;6.40;99.90;;;;;;5075288;28;20424;-81
2021/12/12 03:56:45;;;;;;;4.50;2.90;;;6.50;99.90;;;;;;5047978;28;20440;-82
2021/12/12 03:59:13;;;;;;;7.80;3.70;;;6.60;99.90;;;;;;5033493;28;20427;-80
2021/12/12 04:01:51;;;;;;;6.43;2.70;;;6.50;99.90;;;;;;5022945;28;20468;-83
2021/12/12 04:04:30;;;;;;;5.57;3.50;;;6.60;99.90;;;;;;5055214;28;20909;-83
2021/12/12 04:06:57;;;;;;;6.23;3.87;;;6.60;99.90;;;;;;5041756;28;20460;-81
2021/12/12 04:09:24;;;;;;;4.87;2.60;;;6.70;99.90;;;;;;5066197;28;20461;-82
2021/12/12 04:12:00;;;;;;;6.40;2.73;;;6.60;99.90;;;;;;5074823;28;20809;-80
2021/12/12 04:14:27;;;;;;;4.60;3.20;;;6.50;99.90;;;;;;5044185;28;20430;-80
2021/12/12 04:16:56;;;;;;;5.70;2.87;;;6.60;99.90;;;;;;5047670;28;20448;-82
2021/12/12 04:19:23;;;;;;;5.73;2.53;;;6.60;99.90;;;;;;5072895;28;20419;-80
2021/12/12 04:21:50;;;;;;;6.40;2.90;;;6.40;99.90;;;;;;5073636;28;20518;-83
2021/12/12 04:24:26;;;;;;;5.60;2.87;;;6.50;99.90;;;;;;5074920;28;20914;-82
2021/12/12 04:26:53;;;;;;;8.70;2.57;;;6.40;99.90;;;;;;5030499;28;20451;-83
2021/12/12 04:29:24;;;;;;;7.67;2.90;;;6.60;99.90;;;;;;5053364;28;20462;-82
2021/12/12 04:31:54;;;;;;;4.77;2.73;;;6.70;99.90;;;;;;5067766;28;20459;-82
2021/12/12 04:34:26;;;;;;;6.70;3.27;;;6.40;99.90;;;;;;5068292;28;20921;-83
2021/12/12 04:36:53;;;;;;;3.83;2.90;;;6.40;99.90;;;;;;5034249;28;20470;-83
2021/12/12 04:39:25;;;;;;;5.40;3.47;;;6.40;99.90;;;;;;5054773;28;20975;-81
2021/12/12 04:41:54;;;;;;;9.37;3.20;;;6.30;99.90;;;;;;5069288;28;20423;-82
2021/12/12 04:44:29;;;;;;;6.50;3.83;;;6.50;99.90;;;;;;5074616;28;20415;-83
2021/12/12 04:50:21;;;;;;;4.77;2.87;;;6.70;99.90;;;;;;5074362;28;20422;-81
2021/12/12 04:53:12;;;;;;;6.43;3.80;;;6.30;99.90;;;;;;5053428;28;20437;-82
2021/12/12 04:55:56;;;;;;;6.57;3.10;;;6.50;99.90;;;;;;5055041;28;20442;-82
2021/12/12 04:58:43;;;;;;;8.23;3.47;;;6.50;99.90;;;;;;5043271;28;20443;-83
2021/12/12 05:01:24;;;;;;;9.50;3.57;;;6.40;99.90;;;;;;5058090;28;20493;-83
2021/12/12 05:03:58;;;;;;;5.47;3.50;;;6.50;99.90;;;;;;5064564;28;20430;-83
2021/12/12 05:06:33;;;;;;;9.10;3.80;;;6.10;99.90;;;;;;5040064;28;20419;-83
2021/12/12 05:09:28;;;;;;;5.13;3.00;;;6.40;99.90;;;;;;5075284;28;20427;-83
2021/12/12 05:12:26;;;;;;;7.30;3.53;;;6.40;99.90;;;;;;5029652;28;20450;-81
2021/12/12 05:14:57;;;;;;;9.00;3.53;;;6.30;99.90;;;;;;5042100;28;20514;-81
2021/12/12 05:17:42;;;;;;;6.30;3.60;;;6.40;99.90;;;;;;5072806;28;20435;-81
2021/12/12 05:20:13;;;;;;;5.33;4.13;;;6.30;99.90;;;;;;5048921;28;20470;-80
2021/12/12 05:22:51;;;;;;;6.03;3.47;;;6.20;99.90;;;;;;5021023;28;20968;-83
2021/12/12 05:25:21;;;;;;;6.33;3.47;;;6.50;99.90;;;;;;5075563;28;20410;-81
2021/12/12 05:27:50;;;;;;;8.80;4.03;;;6.40;99.90;;;;;;5054431;28;20519;-81
2021/12/12 05:30:24;;;;;;;9.03;4.33;;;6.30;99.90;;;;;;5052878;28;20463;-83
2021/12/12 05:32:51;;;;;;;5.37;3.43;;;6.50;99.90;;;;;;5045359;28;20412;-83
2021/12/12 05:35:20;;;;;;;5.03;3.37;;;6.40;99.90;;;;;;5058087;28;20451;-83
2021/12/12 05:37:51;;;;;;;7.63;3.20;;;6.30;99.90;;;;;;5074244;28;20471;-85
2021/12/12 05:40:19;;;;;;;5.60;3.43;;;6.10;99.90;;;;;;5073194;28;20944;-83
2021/12/12 05:42:45;;;;;;;7.13;3.63;;;6.20;99.90;;;;;;5060599;28;20434;-83
2021/12/12 05:45:13;;;;;;;10.53;3.13;;;6.30;99.90;;;;;;5044669;28;20419;-85
2021/12/12 05:47:39;;;;;;;8.10;3.77;;;6.50;99.90;;;;;;5062630;28;20485;-84
2021/12/12 05:50:07;;;;;;;7.53;3.90;;;6.40;99.90;;;;;;5045767;28;20976;-84
2021/12/12 05:52:33;;;;;;;11.63;3.40;;;6.20;99.90;;;;;;5044904;28;20173;-83
2021/12/12 05:55:01;;;;;;;11.03;4.00;;;6.20;99.90;;;;;;5076789;28;20765;-83
2021/12/12 05:57:28;;;;;;;7.73;3.90;;;6.20;99.90;;;;;;5061107;28;20285;-85
2021/12/12 05:59:56;;;;;;;6.87;3.67;;;6.10;99.90;;;;;;5060022;28;20470;-81
2021/12/12 06:02:23;;;;;;;7.60;3.77;;;6.40;99.90;;;;;;5077272;28;20472;-82
2021/12/12 06:04:50;;;;;;;8.23;3.80;;;6.10;99.90;;;;;;5078402;28;20427;-83
2021/12/12 06:07:19;;;;;;;8.10;4.30;;;6.20;99.90;;;;;;5077167;28;20928;-84
2021/12/12 06:09:47;;;;;;;5.80;3.03;;;6.00;99.90;;;;;;5055534;28;20427;-82
2021/12/12 06:12:13;;;;;;;7.60;3.87;;;6.00;99.90;;;;;;5047166;28;21097;-82
2021/12/12 06:14:40;;;;;;;7.73;3.77;;;6.10;99.90;;;;;;5043563;28;20763;-81
2021/12/12 06:17:12;;;;;;;6.90;4.00;;;6.20;99.90;;;;;;5072635;28;20483;-83
2021/12/12 06:19:39;;;;;;;9.73;3.63;;;6.10;99.90;;;;;;5056305;28;20426;-82
2021/12/12 06:22:05;;;;;;;6.43;3.83;;;6.10;99.90;;;;;;5069332;28;20419;-81
2021/12/12 06:24:33;;;;;;;14.10;4.13;;;6.30;99.90;;;;;;5059621;28;20508;-83
2021/12/12 06:27:07;;;;;;;8.40;4.40;;;6.20;99.90;;;;;;5034023;28;20443;-83
2021/12/12 06:29:34;;;;;;;6.70;3.93;;;6.00;99.90;;;;;;5047432;28;20477;-83
2021/12/12 06:32:00;;;;;;;5.53;3.97;;;6.30;99.90;;;;;;5051117;28;20437;-82
2021/12/12 06:34:26;;;;;;;6.77;3.23;;;6.10;99.90;;;;;;5060651;28;20431;-83
2021/12/12 06:36:52;;;;;;;6.47;3.70;;;6.40;99.90;;;;;;5077517;28;20462;-80
2021/12/12 06:39:19;;;;;;;5.60;3.73;;;6.30;99.90;;;;;;5057093;28;20442;-81
2021/12/12 06:41:47;;;;;;;5.70;3.17;;;6.40;99.90;;;;;;5055807;28;20411;-82
2021/12/12 06:44:14;;;;;;;5.57;3.50;;;6.20;99.90;;;;;;5052656;28;20428;-80
2021/12/12 06:46:42;;;;;;;6.50;4.10;;;6.20;99.90;;;;;;5069898;28;20422;-82
2021/12/12 06:49:10;;;;;;;5.13;3.00;;;6.20;99.90;;;;;;5052021;28;20495;-80
2021/12/12 06:51:41;;;;;;;2.87;2.67;;;6.20;99.90;;;;;;5054824;28;20455;-81
2021/12/12 06:54:08;;;;;;;4.17;2.87;;;6.20;99.90;;;;;;5058660;28;20481;-82
2021/12/12 06:56:35;;;;;;;2.97;2.67;;;6.20;99.90;;;;;;5058379;28;20634;-80
2021/12/12 06:59:03;;;;;;;4.57;2.37;;;6.30;99.90;;;;;;5051252;28;20913;-81
2021/12/12 07:01:33;;;;;;;6.03;2.37;;;6.30;99.90;;;;;;5055116;28;20420;-81
2021/12/12 07:04:00;;;;;;;3.50;3.03;;;6.20;99.90;;;;;;5077329;28;21186;-82
2021/12/12 07:06:29;;;;;;;3.03;2.37;;;6.50;99.90;;;;;;5065147;28;20497;-79
2021/12/12 07:08:58;;;;;;;3.50;2.63;;;6.50;99.90;;;;;;5030394;28;20447;-80
2021/12/12 07:11:27;;;;;;;2.60;2.40;;;6.30;99.90;;;;;;5035702;28;20460;-82
2021/12/12 07:13:53;;;;;;;3.70;2.97;;;6.50;99.90;;;;;;5065118;28;20446;-83
2021/12/12 07:16:24;;;;;;;4.00;2.30;;;6.20;99.90;;;;;;5048592;28;20503;-82
2021/12/12 07:18:52;;;;;;;3.77;2.53;;;6.30;99.90;;;;;;5048766;28;20565;-83
2021/12/12 07:21:18;;;;;;;3.90;2.50;;;6.20;99.90;;;;;;5043274;28;20465;-83
2021/12/12 07:23:47;;;;;;;3.47;2.57;;;6.50;99.90;;;;;;5033611;28;20503;-83
2021/12/12 07:26:14;;;;;;;3.53;2.30;;;6.50;99.90;;;;;;5059742;28;20423;-83
2021/12/12 07:28:41;;;;;;;2.00;1.80;;;6.50;99.90;;;;;;5059841;28;20447;-83
2021/12/12 07:31:10;;;;;;;5.23;2.73;;;6.60;99.90;;;;;;5068247;28;20497;-82
2021/12/12 07:33:37;;;;;;;2.30;2.03;;;6.50;99.90;;;;;;5059226;28;20427;-83
2021/12/12 07:36:06;;;;;;;3.93;1.80;;;6.40;99.90;;;;;;5057272;28;20436;-83
2021/12/12 07:38:33;;;;;;;2.63;1.90;;;6.40;99.90;;;;;;5041131;28;20455;-83
2021/12/12 07:41:00;;;;;;;2.80;2.03;;;6.70;99.90;;;;;;5044389;28;20431;-82
2021/12/12 07:43:29;;;;;;;2.20;1.83;;;6.50;99.90;;;;;;5061152;28;20423;-83
2021/12/12 07:45:56;;;;;;;4.00;2.40;;;6.50;99.90;;;;;;5044024;28;20430;-84
2021/12/12 07:48:23;;;;;;;2.27;2.00;;;6.70;99.90;;;;;;5061417;28;21098;-80
2021/12/12 07:50:50;;;;;;;2.33;1.97;;;6.70;99.90;;;;;;5064080;28;20531;-84
2021/12/12 07:53:17;;;;;;;3.00;2.33;;;6.70;99.90;;;;;;5065761;28;20409;-83
2021/12/12 07:55:44;;;;;;;2.27;2.07;;;6.70;99.90;;;;;;5071482;28;20472;-82
2021/12/12 07:58:13;;;;;;;3.00;2.10;;;6.60;99.90;;;;;;5064029;28;20447;-79
2021/12/12 08:00:41;;;;;;;2.33;2.00;;;6.50;99.90;;;;;;5064257;28;20449;-80
2021/12/12 08:03:07;;;;;;;2.40;2.20;;;6.50;99.90;;;;;;5064449;28;20939;-79
2021/12/12 08:05:35;;;;;;;3.27;2.17;;;6.60;99.90;;;;;;5055244;28;20440;-79
2021/12/12 08:08:08;;;;;;;2.33;2.03;;;6.50;99.90;;;;;;5057836;28;20436;-82
2021/12/12 08:10:35;;;;;;;3.10;2.33;;;6.60;99.90;;;;;;5050445;28;20457;-82
2021/12/12 08:13:01;;;;;;;3.03;2.40;;;6.40;99.90;;;;;;5075352;28;20411;-82
2021/12/12 08:15:29;;;;;;;4.23;2.80;;;6.60;99.90;;;;;;5039752;28;20420;-82
2021/12/12 08:18:00;;;;;;;3.20;2.17;;;6.70;99.90;;;;;;5045603;28;21005;-79
2021/12/12 08:20:30;;;;;;;4.97;2.40;;;6.60;99.90;;;;;;5061409;28;20526;-81
2021/12/12 08:22:57;;;;;;;3.63;2.40;;;6.60;99.90;;;;;;5071264;28;20424;-82
2021/12/12 08:25:25;;;;;;;2.90;2.60;;;6.70;99.90;;;;;;5072950;28;20427;-83
2021/12/12 08:27:53;;;;;;;5.77;2.70;;;6.70;99.90;;;;;;5052774;28;20968;-81
2021/12/12 08:30:20;;;;;;;3.50;2.50;;;6.60;99.90;;;;;;5056817;28;20465;-84
2021/12/12 08:32:47;;;;;;;2.70;2.40;;;6.70;99.90;;;;;;5055899;28;20788;-82
2021/12/12 08:35:16;;;;;;;2.90;2.43;;;6.80;99.90;;;;;;5071991;28;20547;-81
2021/12/12 08:37:44;;;;;;;1.87;1.77;;;6.80;99.90;;;;;;5055140;28;20451;-81
2021/12/12 08:40:14;;;;;;;3.20;2.40;;;6.80;99.90;;;;;;5029569;28;20444;-83
2021/12/12 08:42:40;;;;;;;2.93;2.10;;;6.70;99.90;;;;;;5055454;28;20415;-84
2021/12/12 08:45:10;;;;;;;3.00;2.43;;;6.90;99.90;;;;;;5048961;28;20434;-81
2021/12/12 08:47:36;;;;;;;2.90;2.20;;;6.70;99.90;;;;;;5040567;28;20525;-82
2021/12/12 08:50:06;;;;;;;2.90;2.60;;;6.70;99.90;;;;;;5073803;28;20577;-82
2021/12/12 08:52:37;;;;;;;3.17;2.30;;;7.00;99.90;;;;;;5063424;28;20401;-83
2021/12/12 08:55:08;;;;;;;3.00;2.40;;;7.00;99.90;;;;;;5069844;28;20423;-82
2021/12/12 08:57:45;;;;;;;2.67;2.20;;;6.80;99.90;;;;;;5048775;28;20828;-81
2021/12/12 09:00:16;;;;;;;2.40;2.20;;;6.90;99.90;;;;;;5050302;28;20423;-83
2021/12/12 09:02:43;;;;;;;2.30;2.07;;;7.00;99.90;;;;;;5039360;28;20416;-81
2021/12/12 09:05:16;;;;;;;3.03;2.43;;;7.00;99.90;;;;;;5020330;28;20468;-85
2021/12/12 09:07:47;;;;;;;2.93;2.40;;;7.00;99.90;;;;;;5055027;28;20466;-81
2021/12/12 09:10:26;;;;;;;2.87;2.30;;;7.00;99.90;;;;;;5072267;28;20463;-83
2021/12/12 09:13:04;;;;;;;2.40;1.90;;;6.90;99.90;;;;;;5082742;28;20472;-82
2021/12/12 09:15:40;;;;;;;2.07;1.87;;;7.00;99.90;;;;;;5071421;28;20399;-82
2021/12/12 09:18:11;;;;;;;2.30;2.10;;;7.20;99.90;;;;;;5062709;28;20446;-83
2021/12/12 09:20:53;;;;;;;2.60;2.40;;;7.20;99.90;;;;;;5071697;28;20432;-83
2021/12/12 09:23:24;;;;;;;3.03;2.73;;;7.10;99.90;;;;;;5068369;28;20904;-83
2021/12/12 09:25:59;;;;;;;3.07;2.30;;;7.10;99.90;;;;;;5074955;28;20469;-85
2021/12/12 09:28:29;;;;;;;2.10;2.00;;;7.10;99.90;;;;;;5072080;28;20455;-82
2021/12/12 09:30:58;;;;;;;2.87;2.67;;;7.00;99.90;;;;;;5060097;28;20451;-81
2021/12/12 09:33:38;;;;;;;2.27;2.07;;;7.20;99.90;;;;;;5077375;28;20419;-83
2021/12/12 09:36:10;;;;;;;2.10;1.90;;;7.10;99.90;;;;;;5047993;28;20445;-83
2021/12/12 09:38:43;;;;;;;2.27;1.83;;;7.10;99.90;;;;;;5060225;28;20431;-83
2021/12/12 09:41:30;;;;;;;2.33;2.13;;;7.30;99.90;;;;;;5060562;28;20419;-84
2021/12/12 09:44:02;;;;;;;3.97;1.90;;;7.40;99.90;;;;;;5053600;28;20415;-82
2021/12/12 09:46:58;;;;;;;3.20;2.30;;;7.20;99.90;;;;;;5067165;28;20511;-81
2021/12/12 09:53:01;;;;;;;2.43;2.23;;;7.20;99.90;;;;;;5065883;28;20412;-82
2021/12/12 09:55:43;;;;;;;6.50;2.30;;;7.30;99.90;;;;;;5054904;28;20427;-83
2021/12/12 09:58:38;;;;;;;2.80;2.60;;;7.20;99.90;;;;;;5056420;28;20502;-82
2021/12/12 10:01:05;;;;;;;3.30;2.40;;;7.30;99.90;;;;;;5049389;28;20454;-83
2021/12/12 10:03:50;;;;;;;3.00;2.80;;;7.40;99.90;;;;;;5078934;28;20412;-83
2021/12/12 10:07:03;;;;;;;3.83;2.97;;;7.20;99.90;;;;;;5059789;28;20415;-84
2021/12/12 10:09:45;;;;;;;3.77;3.37;;;7.40;99.90;;;;;;5032522;28;20436;-82
2021/12/12 10:12:18;;;;;;;3.60;2.93;;;7.40;99.90;;;;;;5034507;28;20435;-82
2021/12/12 10:14:51;;;;;;;4.47;3.67;;;7.30;99.90;;;;;;5047877;28;20423;-81
2021/12/12 10:17:39;;;;;;;4.23;3.83;;;7.50;99.90;;;;;;5064110;28;20443;-82
2021/12/12 10:20:13;;;;;;;4.77;4.30;;;7.30;99.90;;;;;;5077260;28;20419;-82
2021/12/12 10:22:42;;;;;;;6.27;4.80;;;7.30;99.90;;;;;;5071587;28;20429;-82
2021/12/12 10:25:10;;;;;;;4.80;4.40;;;7.30;99.90;;;;;;5070020;28;20438;-82
2021/12/12 10:28:17;;;;;;;5.30;4.80;;;7.40;99.90;;;;;;5068415;28;20451;-83
2021/12/12 10:30:50;;;;;;;5.23;4.73;;;7.50;99.90;;;;;;5064920;28;20478;-81
2021/12/12 10:33:43;;;;;;;5.73;5.23;;;7.70;99.90;;;;;;5065275;28;20443;-83
2021/12/12 10:36:17;;;;;;;7.10;5.40;;;7.70;99.90;;;;;;5035613;28;20427;-82
2021/12/12 10:39:11;;;;;;;6.03;4.80;;;7.70;99.90;;;;;;5059012;28;20493;-82
2021/12/12 10:41:38;;;;;;;6.60;4.37;;;7.60;99.90;;;;;;5068887;28;20873;-83
2021/12/12 10:44:18;;;;;;;5.33;4.80;;;7.90;99.90;;;;;;5055840;28;20526;-83
2021/12/12 10:47:05;;;;;;;7.23;5.00;;;7.60;99.90;;;;;;5074213;28;20435;-82
2021/12/12 10:49:52;;;;;;;5.13;4.00;;;7.70;99.90;;;;;;5078317;28;20802;-83
2021/12/12 10:52:39;;;;;;;4.87;4.40;;;7.90;99.90;;;;;;5045157;28;20462;-83
2021/12/12 10:55:36;;;;;;;7.27;5.40;;;7.90;99.90;;;;;;5066689;28;20417;-80
2021/12/12 10:58:16;;;;;;;4.97;4.47;;;7.70;99.90;;;;;;5056172;28;20459;-84
2021/12/12 11:00:47;;;;;;;4.70;4.30;;;7.80;99.90;;;;;;5072489;28;20403;-81
2021/12/12 11:03:38;;;;;;;5.27;4.20;;;8.00;99.90;;;;;;5075424;28;20451;-83
2021/12/12 11:06:30;;;;;;;5.30;4.73;;;7.80;99.90;;;;;;5061604;28;20857;-82
2021/12/12 11:09:04;;;;;;;6.33;4.10;;;7.80;99.90;;;;;;5055651;28;20963;-81
2021/12/12 11:11:39;;;;;;;5.70;3.80;;;7.70;99.90;;;;;;5034735;28;20514;-82
2021/12/12 11:14:17;;;;;;;4.60;4.20;;;8.10;99.90;;;;;;5056657;28;20458;-81
2021/12/12 11:16:43;;;;;;;5.07;4.03;;;8.00;99.90;;;;;;5074184;28;20453;-82
2021/12/12 11:19:34;;;;;;;4.73;3.90;;;8.00;99.90;;;;;;5055361;28;20944;-82
2021/12/12 11:22:09;;;;;;;6.90;4.43;;;7.80;99.90;;;;;;5069747;28;20195;-82
2021/12/12 11:24:39;;;;;;;5.13;4.30;;;7.90;99.90;;;;;;5066586;28;20822;-83
2021/12/12 11:27:07;;;;;;;4.60;3.60;;;8.20;99.90;;;;;;5039623;28;20462;-85
2021/12/12 11:30:01;;;;;;;4.50;4.10;;;8.10;99.90;;;;;;5068549;28;20967;-80
2021/12/12 11:32:35;;;;;;;4.40;3.30;;;7.90;99.90;;;;;;5065026;28;20431;-81
2021/12/12 11:35:03;;;;;;;5.13;3.17;;;8.00;99.90;;;;;;5054045;28;20460;-84
2021/12/12 11:37:58;;;;;;;3.23;2.93;;;8.10;99.90;;;;;;5051671;28;20439;-83
2021/12/12 11:40:34;;;;;;;3.07;2.83;;;8.20;99.90;;;;;;5070531;28;20428;-84
2021/12/12 11:43:32;;;;;;;2.80;2.60;;;7.90;99.90;;;;;;5073283;28;20443;-82
2021/12/12 11:46:08;;;;;;;2.73;2.53;;;8.00;99.90;;;;;;5077386;28;20877;-82
2021/12/12 11:48:43;;;;;;;2.87;2.60;;;8.00;99.90;;;;;;5077079;28;20446;-83
2021/12/12 11:51:24;;;;;;;4.53;2.60;;;8.00;99.90;;;;;;5077913;28;20853;-82
2021/12/12 11:54:00;;;;;;;2.60;2.40;;;8.10;99.90;;;;;;5056384;28;20836;-83
2021/12/12 11:56:47;;;;;;;2.23;2.03;;;8.00;99.90;;;;;;5065816;28;20867;-82
2021/12/12 11:59:23;;;;;;;2.27;1.80;;;8.10;99.90;;;;;;5059529;28;20426;-82
2021/12/12 12:01:57;;;;;;;3.13;2.63;;;8.20;99.90;;;;;;5059022;28;20422;-81
2021/12/12 12:04:33;;;;;;;2.53;2.33;;;8.10;99.90;;;;;;5058592;28;20435;-83
2021/12/12 12:07:22;;;;;;;2.30;2.10;;;8.10;99.90;;;;;;5065764;28;20496;-81
2021/12/12 12:10:13;;;;;;;2.23;2.03;;;8.10;99.90;;;;;;5076499;28;20411;-83
2021/12/12 12:13:15;;;;;;;2.20;1.90;;;8.20;99.90;;;;;;5076441;28;20432;-83
2021/12/12 12:16:04;;;;;;;1.80;1.70;;;8.20;99.90;;;;;;5076634;28;20418;-82
2021/12/12 12:19:01;;;;;;;3.20;2.37;;;8.10;99.90;;;;;;5049312;28;20502;-83
2021/12/12 12:21:41;;;;;;;2.30;2.10;;;8.20;99.90;;;;;;5058160;28;20447;-84
2021/12/12 12:24:22;;;;;;;3.00;2.70;;;8.20;99.90;;;;;;5056622;28;20887;-82
2021/12/12 12:27:03;;;;;;;3.10;2.00;;;8.30;99.90;;;;;;5057441;28;20450;-84
2021/12/12 12:29:30;;;;;;;2.37;2.00;;;8.30;99.90;;;;;;5045089;28;20484;-84
2021/12/12 12:32:15;;;;;;;2.23;1.97;;;8.40;99.90;;;;;;5055023;28;20466;-84
2021/12/12 12:34:49;;;;;;;2.30;2.10;;;8.40;99.90;;;;;;5056882;28;20429;-82
2021/12/12 12:37:52;;;;;;;2.40;2.20;;;8.30;99.90;;;;;;5072957;28;20478;-82
2021/12/12 12:40:40;;;;;;;2.23;2.03;;;8.30;99.90;;;;;;5053944;28;20434;-81
2021/12/12 12:43:24;;;;;;;2.60;1.80;;;8.60;99.90;;;;;;5046276;28;20428;-80
2021/12/12 12:46:08;;;;;;;2.20;2.00;;;8.40;99.90;;;;;;5052349;28;20441;-83
2021/12/12 12:48:56;;;;;;;4.27;2.50;;;8.30;99.90;;;;;;5065127;28;20443;-80
2021/12/12 12:51:44;;;;;;;2.63;2.43;;;8.60;99.90;;;;;;5072766;28;20454;-85
2021/12/12 12:54:27;;;;;;;3.00;2.60;;;8.30;99.90;;;;;;5061146;28;20435;-81
2021/12/12 12:57:17;;;;;;;2.73;2.33;;;8.50;99.90;;;;;;5091091;28;20451;-83
2021/12/12 13:00:06;;;;;;;3.10;2.53;;;8.50;99.90;;;;;;5059556;28;20423;-84
2021/12/12 13:03:00;;;;;;;2.47;2.27;;;8.40;99.90;;;;;;5072909;28;20419;-84
2021/12/12 13:06:09;;;;;;;2.50;2.30;;;8.30;99.90;;;;;;5053030;28;20428;-84
2021/12/12 13:08:40;;;;;;;2.40;2.20;;;8.30;99.90;;;;;;5072133;28;20967;-83
2021/12/12 13:11:10;;;;;;;2.97;2.63;;;8.40;99.90;;;;;;5053828;28;20471;-82
2021/12/12 13:14:01;;;;;;;2.60;2.40;;;8.40;99.90;;;;;;5058251;28;20453;-83
2021/12/12 13:16:49;;;;;;;2.43;2.23;;;8.50;99.90;;;;;;5063679;28;20462;-81
2021/12/12 13:19:35;;;;;;;3.57;2.40;;;8.30;99.90;;;;;;5071591;28;20435;-83
2021/12/12 13:22:10;;;;;;;2.83;2.30;;;8.40;99.90;;;;;;5075739;28;20444;-83
2021/12/12 13:24:53;;;;;;;2.50;2.30;;;8.40;99.90;;;;;;5040448;28;20483;-84
2021/12/12 13:28:16;;;;;;;2.10;2.00;;;8.60;99.90;;;;;;5074933;28;20478;-84
2021/12/12 13:31:13;;;;;;;2.43;2.27;;;8.50;99.90;;;;;;5088862;28;20556;-80
2021/12/12 13:33:47;;;;;;;2.27;2.07;;;8.70;99.90;;;;;;5068532;28;20427;-80
2021/12/12 13:36:40;;;;;;;2.10;2.00;;;8.40;99.90;;;;;;5065174;28;20402;-81
2021/12/12 13:39:11;;;;;;;2.47;2.27;;;8.30;99.90;;;;;;5081678;28;21076;-82
2021/12/12 13:42:11;;;;;;;2.10;2.00;;;8.30;99.90;;;;;;5070108;28;20430;-82
2021/12/12 13:45:01;;;;;;;2.80;2.60;;;8.40;99.90;;;;;;5060530;28;20427;-82
2021/12/12 13:48:06;;;;;;;2.90;2.27;;;8.60;99.90;;;;;;5069679;28;20474;-83
2021/12/12 13:51:13;;;;;;;2.30;2.10;;;8.30;99.90;;;;;;5071535;28;20975;-84
2021/12/12 13:53:45;;;;;;;2.20;2.10;;;8.50;99.90;;;;;;5014522;28;20503;-83